Time;durP1;ratioP1;P1;durP2;ratioP2;P2;SDS_P1;SDS_P2;PMS_P1;PMS_P2;Temp;Humidity;BMP_temperature;BMP_pressure;BME280_temperature;BME280_humidity;BME280_pressure;Samples;Min_cycle;Max_cycle;Signal;HPM_P1;HPM_P2
2021/10/15 00:00:13;;;;;;;16.38;7.15;;;;;;;13.36;91.04;101781.91;5033749;28;20029;-58
2021/10/15 00:02:38;;;;;;;15.95;7.40;;;;;;;13.34;90.80;101775.78;5033492;28;20080;-58
2021/10/15 00:05:06;;;;;;;13.57;7.32;;;;;;;13.35;90.91;101772.19;5033850;28;20036;-61
2021/10/15 00:07:32;;;;;;;18.33;7.00;;;;;;;13.34;90.66;101777.56;5033255;28;20440;-58
2021/10/15 00:09:57;;;;;;;13.02;6.32;;;;;;;13.31;91.11;101770.56;5033725;28;20041;-62
2021/10/15 00:12:23;;;;;;;13.23;6.80;;;;;;;13.30;91.28;101755.56;5033527;28;20025;-59
2021/10/15 00:14:48;;;;;;;13.40;7.22;;;;;;;13.30;91.06;101760.88;5032891;28;20075;-58
2021/10/15 00:17:13;;;;;;;20.25;7.53;;;;;;;13.29;91.20;101761.81;5033335;28;20040;-59
2021/10/15 00:19:39;;;;;;;16.00;7.30;;;;;;;13.32;91.38;101759.00;5033713;28;20029;-60
2021/10/15 00:22:04;;;;;;;15.50;7.45;;;;;;;13.31;91.05;101756.41;5033726;28;20033;-58
2021/10/15 00:24:30;;;;;;;14.18;7.15;;;;;;;13.32;91.28;101758.16;5033003;28;20428;-59
2021/10/15 00:26:55;;;;;;;22.40;7.55;;;;;;;13.33;91.33;101757.22;5032939;28;20489;-58
2021/10/15 00:29:21;;;;;;;19.17;6.90;;;;;;;13.33;91.40;101752.75;5033515;28;20057;-59
2021/10/15 00:31:46;;;;;;;15.93;7.45;;;;;;;13.31;91.62;101740.44;5033412;28;20052;-58
2021/10/15 00:34:11;;;;;;;12.85;6.22;;;;;;;13.31;91.46;101741.31;5033593;28;20465;-58
2021/10/15 00:36:36;;;;;;;16.58;6.78;;;;;;;13.30;91.20;101736.94;5032889;28;20057;-62
2021/10/15 00:39:02;;;;;;;15.65;6.53;;;;;;;13.30;91.56;101736.06;5032681;28;20120;-60
2021/10/15 00:41:27;;;;;;;15.02;6.50;;;;;;;13.31;91.58;101728.00;5033109;28;20389;-60
2021/10/15 00:44:12;;;;;;;12.75;6.30;;;;;;;13.27;91.76;101727.28;5033105;28;20025;-58
2021/10/15 00:46:39;;;;;;;13.77;5.80;;;;;;;13.27;91.82;101721.09;5032683;28;20059;-63
2021/10/15 00:49:08;;;;;;;17.88;7.38;;;;;;;13.26;92.05;101719.34;5032704;28;20026;-59
2021/10/15 00:51:34;;;;;;;16.92;6.40;;;;;;;13.30;91.98;101718.31;5032931;28;20029;-60
2021/10/15 00:54:01;;;;;;;12.25;5.90;;;;;;;13.28;91.88;101721.00;5032522;28;20025;-60
2021/10/15 00:56:31;;;;;;;14.85;6.30;;;;;;;13.28;92.02;101714.84;5032429;28;20521;-62
2021/10/15 00:58:59;;;;;;;13.25;6.30;;;;;;;13.26;92.23;101706.94;5032500;28;20026;-58
2021/10/15 01:01:24;;;;;;;15.10;6.13;;;;;;;13.29;91.86;101708.59;5032554;28;20030;-59
2021/10/15 01:03:49;;;;;;;10.60;5.90;;;;;;;13.28;91.89;101709.53;5032891;28;20030;-58
2021/10/15 01:06:15;;;;;;;15.80;6.70;;;;;;;13.27;91.71;101706.00;5032817;28;20033;-63
2021/10/15 01:08:45;;;;;;;14.18;6.50;;;;;;;13.31;91.97;101704.06;5032292;28;20528;-59
2021/10/15 01:11:10;;;;;;;14.80;6.32;;;;;;;13.30;92.06;101705.03;5032397;28;20033;-58
2021/10/15 01:13:36;;;;;;;16.00;7.00;;;;;;;13.27;92.17;101690.06;5032344;28;20029;-63
2021/10/15 01:16:03;;;;;;;14.65;6.88;;;;;;;13.30;92.14;101696.16;5032845;28;20037;-61
2021/10/15 01:18:29;;;;;;;18.83;6.75;;;;;;;13.29;91.88;101692.66;5032638;28;20052;-59
2021/10/15 01:20:54;;;;;;;14.65;7.25;;;;;;;13.25;92.28;101683.91;5032388;28;20060;-62
2021/10/15 01:23:20;;;;;;;14.35;7.05;;;;;;;13.27;91.87;101678.53;5031280;28;20489;-62
2021/10/15 01:25:45;;;;;;;14.50;7.18;;;;;;;13.27;92.33;101686.50;5031908;28;20025;-58
2021/10/15 01:28:10;;;;;;;20.00;7.80;;;;;;;13.26;92.31;101674.13;5032830;28;20029;-62
2021/10/15 01:30:35;;;;;;;16.92;7.55;;;;;;;13.27;92.08;101674.09;5032728;28;20022;-59
2021/10/15 01:33:01;;;;;;;18.73;7.97;;;;;;;13.26;92.20;101676.78;5032394;28;20034;-62
2021/10/15 01:35:26;;;;;;;19.65;7.63;;;;;;;13.26;92.26;101677.69;5032587;28;20075;-62
2021/10/15 01:37:51;;;;;;;16.75;7.85;;;;;;;13.26;92.37;101674.13;5031848;28;20477;-59
2021/10/15 01:40:17;;;;;;;14.32;7.78;;;;;;;13.22;92.28;101670.78;5032149;28;20034;-60
2021/10/15 01:42:54;;;;;;;17.75;7.95;;;;;;;13.22;92.73;101672.53;5031990;28;20799;-58
2021/10/15 01:45:21;;;;;;;14.60;7.45;;;;;;;13.20;92.69;101666.44;5032711;28;20021;-58
2021/10/15 01:47:46;;;;;;;14.32;7.22;;;;;;;13.21;92.75;101657.50;5032220;28;20030;-59
2021/10/15 01:50:11;;;;;;;16.45;7.47;;;;;;;13.20;92.96;101647.81;5032309;28;20037;-59
2021/10/15 01:52:37;;;;;;;20.83;7.35;;;;;;;13.22;92.95;101648.59;5031880;28;20025;-58
2021/10/15 01:55:05;;;;;;;14.23;7.05;;;;;;;13.20;92.91;101645.16;5032297;28;20056;-59
2021/10/15 01:57:30;;;;;;;18.15;7.50;;;;;;;13.24;92.74;101647.59;5031628;28;20025;-58
2021/10/15 01:59:55;;;;;;;16.20;7.70;;;;;;;13.21;93.00;101650.41;5032505;28;20140;-58
2021/10/15 02:02:21;;;;;;;19.65;7.28;;;;;;;13.21;93.06;101637.13;5032395;28;20053;-63
2021/10/15 02:04:46;;;;;;;14.25;7.03;;;;;;;13.20;93.15;101643.34;5032009;28;20033;-62
2021/10/15 02:07:11;;;;;;;14.68;6.35;;;;;;;13.21;93.08;101639.78;5035992;28;20042;-63
2021/10/15 02:09:37;;;;;;;15.10;6.57;;;;;;;13.18;93.02;101631.91;5035617;28;20128;-59
2021/10/15 02:12:03;;;;;;;18.23;7.03;;;;;;;13.17;93.02;101626.66;5035715;28;20366;-61
2021/10/15 02:14:29;;;;;;;12.43;6.22;;;;;;;13.17;93.06;101626.66;5035296;28;20063;-60
2021/10/15 02:16:55;;;;;;;18.45;6.25;;;;;;;13.18;92.93;101631.06;5036048;28;20022;-63
2021/10/15 02:19:39;;;;;;;12.88;5.78;;;;;;;13.19;92.88;101616.84;5035543;28;20036;-59
2021/10/15 02:22:05;;;;;;;8.13;3.53;;;;;;;13.31;90.53;101602.13;5035747;28;20029;-62
2021/10/15 02:24:30;;;;;;;9.60;3.90;;;;;;;13.51;88.28;101607.44;5035398;28;20045;-59
2021/10/15 02:26:56;;;;;;;9.98;3.78;;;;;;;13.66;87.04;101610.34;5035471;28;20033;-59
2021/10/15 02:29:21;;;;;;;11.73;3.30;;;;;;;13.81;85.77;101614.13;5035558;28;20032;-59
2021/10/15 02:31:46;;;;;;;12.57;3.72;;;;;;;13.92;85.16;101606.50;5035753;28;20040;-59
2021/10/15 02:34:12;;;;;;;16.40;3.97;;;;;;;14.00;84.21;101599.03;5035400;28;20029;-60
2021/10/15 02:36:37;;;;;;;9.77;3.38;;;;;;;14.05;84.01;101599.69;5035320;28;20026;-59
2021/10/15 02:39:04;;;;;;;9.23;3.20;;;;;;;14.08;83.88;101606.66;5035502;28;20032;-63
2021/10/15 02:41:29;;;;;;;14.25;3.63;;;;;;;14.04;84.08;101600.59;5035150;28;20037;-59
2021/10/15 02:43:55;;;;;;;10.82;3.85;;;;;;;14.07;83.62;101597.78;5035177;28;20033;-62
2021/10/15 02:46:20;;;;;;;10.77;3.35;;;;;;;14.17;82.02;101595.56;5035119;28;20034;-60
2021/10/15 02:48:45;;;;;;;8.95;3.20;;;;;;;14.20;82.21;101591.88;5035136;28;20021;-60
2021/10/15 02:51:12;;;;;;;8.95;3.25;;;;;;;14.28;81.47;101583.53;5034865;28;20553;-59
2021/10/15 02:53:38;;;;;;;12.27;3.33;;;;;;;14.30;81.65;101585.16;5034724;28;20033;-59
2021/10/15 02:56:04;;;;;;;12.20;3.33;;;;;;;14.29;81.04;101582.59;5035346;28;20018;-60
2021/10/15 02:58:30;;;;;;;11.30;3.50;;;;;;;14.24;81.10;101578.31;5034744;28;20473;-59
2021/10/15 03:00:55;;;;;;;11.32;3.55;;;;;;;14.23;81.52;101568.63;5035095;28;20048;-59
2021/10/15 03:03:20;;;;;;;7.63;3.45;;;;;;;14.20;81.20;101582.06;5034684;28;20030;-60
2021/10/15 03:05:46;;;;;;;8.20;3.15;;;;;;;14.20;80.87;101579.41;5034765;28;20034;-63
2021/10/15 03:08:11;;;;;;;9.70;2.88;;;;;;;14.21;81.32;101575.81;5035078;28;20033;-63
2021/10/15 03:10:36;;;;;;;15.00;3.30;;;;;;;14.17;81.38;101573.38;5034859;28;20049;-59
2021/10/15 03:13:03;;;;;;;10.10;3.20;;;;;;;14.15;81.61;101578.78;5034399;28;20540;-59
2021/10/15 03:15:28;;;;;;;10.38;3.20;;;;;;;14.13;82.00;101577.13;5033795;28;20101;-63
2021/10/15 03:17:53;;;;;;;8.90;3.30;;;;;;;14.12;81.99;101583.38;5034920;28;20108;-59
2021/10/15 03:20:19;;;;;;;9.57;3.30;;;;;;;14.15;81.38;101576.09;5034997;28;20037;-59
2021/10/15 03:22:44;;;;;;;9.35;3.75;;;;;;;14.17;81.03;101578.69;5034235;28;20128;-62
2021/10/15 03:25:10;;;;;;;10.13;3.20;;;;;;;14.19;81.27;101571.50;5034315;28;20108;-59
2021/10/15 03:27:35;;;;;;;9.10;3.15;;;;;;;14.17;81.15;101578.69;5034527;28;20080;-59
2021/10/15 03:30:00;;;;;;;17.38;3.55;;;;;;;14.15;80.62;101560.13;5034583;28;20536;-60
2021/10/15 03:32:26;;;;;;;8.48;2.63;;;;;;;14.15;80.96;101548.63;5034410;28;20030;-57
2021/10/15 03:34:51;;;;;;;11.63;3.20;;;;;;;14.14;80.46;101566.38;5034219;28;20057;-63
2021/10/15 03:37:16;;;;;;;8.55;2.72;;;;;;;14.11;80.67;101563.88;5034222;28;20038;-63
2021/10/15 03:39:42;;;;;;;8.98;3.28;;;;;;;14.14;80.44;101563.72;5034683;28;20034;-63
2021/10/15 03:42:07;;;;;;;10.63;3.03;;;;;;;14.13;80.36;101540.72;5034310;28;20484;-59
2021/10/15 03:44:32;;;;;;;9.20;3.10;;;;;;;14.11;80.54;101565.69;5033419;28;20178;-61
2021/10/15 03:46:58;;;;;;;9.93;2.80;;;;;;;14.12;80.47;101568.28;5033792;28;20473;-63
2021/10/15 03:49:23;;;;;;;9.85;3.40;;;;;;;14.08;80.66;101564.03;5034627;28;20034;-59
2021/10/15 03:51:48;;;;;;;7.72;3.22;;;;;;;14.06;80.70;101566.75;5034186;28;20481;-63
2021/10/15 03:54:14;;;;;;;8.15;2.95;;;;;;;14.12;80.44;101572.72;5034210;28;20021;-59
2021/10/15 03:56:39;;;;;;;9.10;3.08;;;;;;;14.10;80.74;101570.13;5033498;28;20473;-59
2021/10/15 03:59:04;;;;;;;10.27;3.92;;;;;;;14.09;80.93;101568.41;5033687;28;20109;-59
2021/10/15 04:01:30;;;;;;;13.05;3.65;;;;;;;14.11;81.18;101560.38;5033521;28;20488;-59
2021/10/15 04:03:55;;;;;;;9.55;3.08;;;;;;;14.09;81.05;101571.97;5033747;28;20040;-59
2021/10/15 04:06:20;;;;;;;13.55;3.60;;;;;;;14.16;80.46;101569.84;5033539;28;20025;-63
2021/10/15 04:08:46;;;;;;;10.60;3.60;;;;;;;14.16;80.51;101563.69;5033522;28;20025;-63
2021/10/15 04:11:11;;;;;;;11.07;3.72;;;;;;;14.13;80.76;101559.34;5032235;28;20393;-63
2021/10/15 04:13:36;;;;;;;12.43;3.20;;;;;;;14.06;81.01;101568.56;5033772;28;20025;-62
2021/10/15 04:16:02;;;;;;;14.10;3.60;;;;;;;14.11;80.57;101563.03;5033220;28;20120;-62
2021/10/15 04:18:30;;;;;;;13.27;3.65;;;;;;;14.12;80.58;101562.06;5033318;28;20040;-63
2021/10/15 04:20:55;;;;;;;9.75;3.22;;;;;;;14.11;80.63;101555.03;5013972;28;20022;-62
2021/10/15 04:23:21;;;;;;;10.38;3.50;;;;;;;14.03;81.13;101555.41;5013663;28;20532;-59
2021/10/15 04:25:47;;;;;;;10.70;3.50;;;;;;;13.99;81.17;101557.34;5013485;28;20108;-59
2021/10/15 04:28:12;;;;;;;9.07;3.20;;;;;;;13.98;81.50;101557.41;5027230;28;20026;-60
2021/10/15 04:30:37;;;;;;;11.85;3.30;;;;;;;13.98;81.40;101563.63;5032767;28;20484;-59
2021/10/15 04:33:03;;;;;;;9.57;3.28;;;;;;;13.98;80.79;101552.06;5033137;28;20435;-61
2021/10/15 04:35:28;;;;;;;13.13;3.25;;;;;;;14.00;81.08;101559.09;5033045;28;20018;-60
2021/10/15 04:37:53;;;;;;;12.00;3.30;;;;;;;14.06;80.40;101555.25;5032931;28;20112;-63
2021/10/15 04:40:19;;;;;;;11.32;3.00;;;;;;;14.08;80.36;101553.38;5033246;28;20027;-60
2021/10/15 04:42:44;;;;;;;12.80;3.30;;;;;;;14.00;80.69;101553.75;5032996;28;20108;-61
2021/10/15 04:45:10;;;;;;;8.93;2.85;;;;;;;14.02;80.37;101557.19;5033371;28;20480;-59
2021/10/15 04:47:35;;;;;;;12.25;3.10;;;;;;;13.98;80.69;101558.28;5032611;28;20465;-60
2021/10/15 04:50:01;;;;;;;13.05;3.42;;;;;;;13.96;80.90;101562.81;5032221;28;20119;-60
2021/10/15 04:52:26;;;;;;;11.00;3.67;;;;;;;13.90;81.40;101550.66;5032378;28;20096;-60
2021/10/15 04:54:51;;;;;;;11.57;3.30;;;;;;;13.92;81.70;101556.75;5032816;28;20033;-59
2021/10/15 04:57:17;;;;;;;13.52;4.00;;;;;;;13.92;81.58;101551.44;5032732;28;20029;-59
2021/10/15 04:59:42;;;;;;;10.35;3.30;;;;;;;13.94;81.45;101551.38;5031875;28;20098;-59
2021/10/15 05:02:07;;;;;;;14.30;3.90;;;;;;;13.94;81.66;101554.06;5032047;28;20029;-59
2021/10/15 05:04:33;;;;;;;13.15;3.53;;;;;;;13.93;81.94;101557.63;5032189;28;20383;-61
2021/10/15 05:06:59;;;;;;;9.57;3.22;;;;;;;13.95;82.41;101542.44;5032481;28;20072;-63
2021/10/15 05:11:56;;;;;;;16.08;3.58;;;;;;;14.00;81.95;101545.78;5022399;28;20543;-59
2021/10/15 05:14:21;;;;;;;14.63;3.95;;;;;;;13.96;82.09;101548.66;5031448;28;20108;-59
2021/10/15 05:16:47;;;;;;;12.30;4.32;;;;;;;13.97;81.80;101547.72;5032139;28;20076;-59
2021/10/15 05:19:12;;;;;;;11.00;3.72;;;;;;;13.99;81.15;101552.03;5031138;28;20052;-60
2021/10/15 05:21:38;;;;;;;13.13;3.53;;;;;;;14.00;81.69;101544.88;5032248;28;20147;-59
2021/10/15 05:24:04;;;;;;;10.55;3.35;;;;;;;13.94;81.80;101540.75;5032271;28;20114;-59
2021/10/15 05:26:29;;;;;;;11.32;3.28;;;;;;;13.97;81.19;101543.25;5032070;28;20029;-59
2021/10/15 05:28:54;;;;;;;11.68;3.30;;;;;;;13.95;81.63;101554.91;5032230;28;20077;-59
2021/10/15 05:31:20;;;;;;;15.20;3.55;;;;;;;13.88;83.77;101568.50;5032284;28;20041;-59
2021/10/15 05:33:45;;;;;;;14.10;3.70;;;;;;;13.75;85.27;101575.34;5031679;28;20037;-60
2021/10/15 05:36:10;;;;;;;9.93;3.17;;;;;;;13.46;88.51;101576.69;5032207;28;20057;-59
2021/10/15 05:38:36;;;;;;;8.52;3.78;;;;;;;13.20;90.92;101582.19;5032325;28;20454;-59
2021/10/15 05:41:01;;;;;;;10.00;3.00;;;;;;;13.03;91.74;101582.06;5035667;28;20501;-60
2021/10/15 05:43:26;;;;;;;8.80;2.90;;;;;;;12.92;92.54;101577.22;5036123;28;20040;-60
2021/10/15 05:45:51;;;;;;;7.70;2.90;;;;;;;12.82;93.41;101576.72;5036211;28;20439;-59
2021/10/15 05:48:17;;;;;;;7.95;3.33;;;;;;;12.75;94.52;101577.94;5036167;28;20036;-59
2021/10/15 05:50:43;;;;;;;11.73;3.55;;;;;;;12.71;94.61;101579.84;5035303;28;20047;-60
2021/10/15 05:53:12;;;;;;;6.53;3.17;;;;;;;12.70;95.37;101577.25;5035815;28;20116;-60
2021/10/15 05:55:57;;;;;;;13.18;3.95;;;;;;;12.70;95.47;101587.88;5036361;28;20136;-60
2021/10/15 06:01:07;;;;;;;62.65;7.65;;;;;;;12.71;95.92;101587.81;5035389;28;20040;-56
2021/10/15 06:03:32;;;;;;;11.80;4.10;;;;;;;12.70;96.66;101599.38;5034713;28;20120;-63
2021/10/15 06:06:45;;;;;;;13.40;4.03;;;;;;;12.68;96.63;101611.84;5035382;28;20064;-63
2021/10/15 06:16:48;;;;;;;5.35;1.42;;;;;;;12.02;97.10;101641.03;5035417;28;20060;-61
2021/10/15 06:19:16;;;;;;;3.90;1.35;;;;;;;11.86;97.06;101635.41;5034010;28;20053;-61
2021/10/15 06:21:42;;;;;;;7.00;1.58;;;;;;;11.70;97.22;101635.09;5035586;28;20086;-60
2021/10/15 06:24:07;;;;;;;1.85;1.02;;;;;;;11.57;97.80;101646.19;5035067;28;20079;-60
2021/10/15 06:26:32;;;;;;;5.97;1.38;;;;;;;11.51;97.91;101659.66;5034361;28;20029;-60
2021/10/15 06:28:58;;;;;;;4.55;1.10;;;;;;;11.46;98.25;101654.50;5035548;28;20025;-59
2021/10/15 06:31:23;;;;;;;2.15;0.77;;;;;;;11.42;98.21;101663.50;5035014;28;20018;-60
2021/10/15 06:33:48;;;;;;;6.38;1.27;;;;;;;11.39;98.87;101668.03;5034812;28;20484;-60
2021/10/15 06:36:14;;;;;;;5.65;1.15;;;;;;;11.40;99.16;101675.94;5034720;28;20139;-60
2021/10/15 06:38:39;;;;;;;4.88;0.95;;;;;;;11.39;99.37;101671.56;5029787;28;20123;-59
2021/10/15 06:41:05;;;;;;;5.43;1.10;;;;;;;11.38;99.60;101682.22;5034563;28;20025;-62
2021/10/15 06:43:30;;;;;;;6.45;1.10;;;;;;;11.36;99.17;101700.00;5029673;28;20534;-55
2021/10/15 06:45:56;;;;;;;8.27;1.25;;;;;;;11.32;98.79;101707.19;5032282;28;20033;-57
2021/10/15 06:48:21;;;;;;;5.25;1.13;;;;;;;11.25;98.20;101703.00;5026563;28;20109;-60
2021/10/15 06:50:47;;;;;;;5.38;1.10;;;;;;;11.18;97.87;101702.34;5034040;28;20025;-60
2021/10/15 06:53:12;;;;;;;6.47;1.60;;;;;;;11.18;98.33;101704.09;5025769;28;20041;-60
2021/10/15 06:55:38;;;;;;;10.00;1.92;;;;;;;11.12;97.72;101716.66;5035158;28;20120;-61
2021/10/15 06:58:04;;;;;;;5.50;1.70;;;;;;;11.11;97.66;101716.69;5034793;28;20108;-60
2021/10/15 07:00:30;;;;;;;12.80;2.08;;;;;;;11.12;97.40;101729.91;5035175;28;20021;-60
2021/10/15 07:02:56;;;;;;;6.03;1.67;;;;;;;11.15;97.66;101731.56;5035272;28;20487;-56
2021/10/15 07:05:21;;;;;;;9.10;1.67;;;;;;;11.15;97.32;101720.97;5034767;28;20033;-59
2021/10/15 07:07:47;;;;;;;13.00;1.63;;;;;;;11.18;97.36;101742.09;5033382;28;20024;-55
2021/10/15 07:10:12;;;;;;;11.45;1.50;;;;;;;11.20;97.28;101736.75;5034514;28;20112;-59
2021/10/15 07:12:39;;;;;;;9.57;1.50;;;;;;;11.23;97.20;101741.97;5034678;28;20021;-59
2021/10/15 07:15:06;;;;;;;12.27;1.92;;;;;;;11.20;96.30;101739.41;5034157;28;20492;-59
2021/10/15 07:17:31;;;;;;;6.82;1.35;;;;;;;11.17;95.51;101744.81;5032470;28;20033;-60
2021/10/15 07:19:57;;;;;;;11.50;1.70;;;;;;;11.16;95.49;101751.88;5020960;28;20024;-56
2021/10/15 07:22:22;;;;;;;7.32;1.63;;;;;;;11.20;95.69;101755.31;5034093;28;20079;-61
2021/10/15 07:24:47;;;;;;;7.53;1.65;;;;;;;11.24;95.62;101767.53;5034760;28;20044;-62
2021/10/15 07:27:13;;;;;;;11.32;1.85;;;;;;;11.26;94.79;101758.59;5034241;28;20048;-61
2021/10/15 07:29:38;;;;;;;7.25;2.38;;;;;;;11.31;93.97;101758.47;5033583;28;20033;-61
2021/10/15 07:32:04;;;;;;;8.93;1.90;;;;;;;11.37;92.58;101760.03;5034879;28;20040;-58
2021/10/15 07:34:29;;;;;;;12.88;2.00;;;;;;;11.39;92.02;101772.31;5033517;28;20069;-53
2021/10/15 07:36:55;;;;;;;9.80;1.80;;;;;;;11.38;90.44;101775.91;5034034;28;20060;-61
2021/10/15 07:39:20;;;;;;;10.35;2.08;;;;;;;11.40;89.81;101783.81;5034437;28;20362;-60
2021/10/15 07:41:45;;;;;;;6.97;1.63;;;;;;;11.40;89.31;101774.06;5034189;28;20469;-52
2021/10/15 07:44:12;;;;;;;7.63;2.35;;;;;;;11.41;89.14;101791.72;5033116;28;20828;-57
2021/10/15 07:46:39;;;;;;;10.05;2.10;;;;;;;11.41;89.24;101799.69;5034591;28;20021;-56
2021/10/15 07:49:05;;;;;;;10.90;2.72;;;;;;;11.41;90.30;101789.06;5034676;28;20025;-60
2021/10/15 07:51:30;;;;;;;6.28;1.95;;;;;;;11.40;90.44;101795.28;5033361;28;20022;-58
2021/10/15 07:53:56;;;;;;;7.53;2.03;;;;;;;11.37;90.50;101813.06;5026232;28;20160;-59
2021/10/15 07:56:21;;;;;;;11.32;2.53;;;;;;;11.40;91.22;101802.38;5025776;28;20116;-60
2021/10/15 07:58:46;;;;;;;9.10;1.60;;;;;;;11.47;91.60;101810.09;5033795;28;20032;-60
2021/10/15 08:01:12;;;;;;;10.77;2.20;;;;;;;11.60;91.05;101815.84;5033806;28;20487;-61
2021/10/15 08:03:37;;;;;;;8.75;1.92;;;;;;;11.69;90.23;101819.97;5032956;28;20124;-61
2021/10/15 08:06:02;;;;;;;9.07;2.15;;;;;;;11.76;90.14;101820.63;5031549;28;20026;-60
2021/10/15 08:08:28;;;;;;;9.98;1.42;;;;;;;11.87;89.47;101828.25;5029357;28;20120;-53
2021/10/15 08:10:53;;;;;;;12.05;2.38;;;;;;;12.02;89.81;101832.16;5022621;28;20105;-60
2021/10/15 08:13:19;;;;;;;9.70;1.95;;;;;;;12.09;87.74;101829.25;5022888;28;20083;-60
2021/10/15 08:15:44;;;;;;;10.50;1.95;;;;;;;12.10;87.25;101835.44;5020673;28;20036;-60
2021/10/15 08:18:09;;;;;;;10.27;1.70;;;;;;;12.12;86.42;101836.22;5033900;28;20033;-58
2021/10/15 08:20:35;;;;;;;9.70;1.75;;;;;;;12.28;85.96;101833.91;5034055;28;20381;-60
2021/10/15 08:23:00;;;;;;;7.00;2.30;;;;;;;12.53;86.32;101835.66;5032269;28;20106;-55
2021/10/15 08:25:27;;;;;;;8.77;1.50;;;;;;;12.62;85.92;101849.47;5032936;28;20038;-55
2021/10/15 08:27:53;;;;;;;12.18;1.90;;;;;;;12.64;85.05;101849.41;5028940;28;20056;-59
2021/10/15 08:30:18;;;;;;;7.75;1.50;;;;;;;12.65;86.18;101861.78;5030122;28;20025;-54
2021/10/15 08:32:43;;;;;;;9.23;2.08;;;;;;;12.64;84.60;101849.41;5031918;28;20091;-60
2021/10/15 08:35:10;;;;;;;8.93;1.73;;;;;;;12.72;84.74;101862.41;5029885;28;20052;-58
2021/10/15 08:37:37;;;;;;;9.70;2.20;;;;;;;12.87;84.68;101867.16;5032558;28;20071;-60
2021/10/15 08:40:04;;;;;;;10.93;1.90;;;;;;;12.86;82.06;101864.56;5026002;28;20433;-59
2021/10/15 08:42:30;;;;;;;10.82;1.92;;;;;;;12.89;82.55;101870.63;5030777;28;20060;-51
2021/10/15 08:44:55;;;;;;;18.55;2.38;;;;;;;12.92;81.93;101872.31;5032604;28;20450;-57
2021/10/15 08:47:20;;;;;;;9.15;1.98;;;;;;;13.06;81.58;101880.59;5022474;28;20096;-52
2021/10/15 08:49:46;;;;;;;16.05;2.78;;;;;;;13.18;79.16;101886.38;5018467;28;20108;-55
2021/10/15 08:52:12;;;;;;;9.60;1.80;;;;;;;13.19;78.85;101888.13;5032603;28;20374;-58
2021/10/15 08:54:38;;;;;;;8.82;2.00;;;;;;;13.17;78.54;101885.53;5031851;28;20437;-59
2021/10/15 08:57:04;;;;;;;14.20;2.50;;;;;;;13.16;78.42;101891.75;5032944;28;20069;-59
2021/10/15 08:59:41;;;;;;;10.20;1.77;;;;;;;13.43;74.47;101900.47;5028466;28;20032;-54
2021/10/15 09:02:21;;;;;;;8.95;1.90;;;;;;;13.91;73.92;101897.66;5032880;28;20025;-59
2021/10/15 09:04:50;;;;;;;7.93;2.00;;;;;;;13.99;72.17;101906.19;5032051;28;20034;-58
2021/10/15 09:07:17;;;;;;;12.35;2.38;;;;;;;13.75;71.79;101921.41;5032022;28;20025;-59
2021/10/15 09:09:44;;;;;;;8.07;1.88;;;;;;;13.63;69.85;101914.75;5031021;28;20104;-58
2021/10/15 09:12:11;;;;;;;9.25;1.85;;;;;;;14.33;63.86;101914.53;5021763;28;20052;-60
2021/10/15 09:14:38;;;;;;;9.25;1.70;;;;;;;15.03;61.47;101904.34;5031986;28;20022;-59
2021/10/15 09:17:07;;;;;;;10.63;1.85;;;;;;;16.41;57.34;101916.28;5033073;28;20052;-58
2021/10/15 09:19:33;;;;;;;6.30;1.75;;;;;;;17.49;51.87;101916.69;5032972;28;20083;-58
2021/10/15 09:22:32;;;;;;;6.90;2.20;;;;;;;17.87;49.70;101918.09;5029767;28;20029;-57
2021/10/15 09:25:02;;;;;;;10.07;1.83;;;;;;;18.76;49.43;101916.38;5031780;28;20136;-57
2021/10/15 09:27:33;;;;;;;8.73;2.38;;;;;;;19.16;46.61;101917.44;5032865;28;20036;-60
2021/10/15 09:30:07;;;;;;;10.60;2.10;;;;;;;19.13;44.03;101914.06;5031199;28;20389;-56
2021/10/15 09:32:35;;;;;;;8.40;1.90;;;;;;;19.05;43.77;101917.25;5033265;28;20040;-59
2021/10/15 09:35:02;;;;;;;8.10;1.92;;;;;;;19.01;44.77;101920.25;5041667;28;20547;-50
2021/10/15 09:37:34;;;;;;;9.02;1.80;;;;;;;19.43;46.97;101921.13;5031278;28;20049;-60
2021/10/15 09:40:08;;;;;;;7.47;1.90;;;;;;;19.96;43.43;101935.56;5032175;28;20033;-55
2021/10/15 09:42:37;;;;;;;7.30;1.70;;;;;;;19.40;43.62;101937.44;5031848;28;20461;-56
2021/10/15 09:45:20;;;;;;;11.05;2.28;;;;;;;19.49;46.19;101924.28;5030865;28;20029;-58
2021/10/15 09:47:45;;;;;;;7.03;1.60;;;;;;;19.45;44.89;101943.38;5031640;28;20018;-56
2021/10/15 09:50:14;;;;;;;10.57;2.22;;;;;;;19.15;44.71;101939.00;5031549;28;20091;-55
2021/10/15 09:52:51;;;;;;;8.95;2.53;;;;;;;18.74;47.43;101948.69;5031631;28;20029;-59
2021/10/15 09:55:25;;;;;;;8.98;2.22;;;;;;;19.00;45.31;101946.22;5031093;28;20045;-56
2021/10/15 09:57:54;;;;;;;9.75;2.03;;;;;;;19.48;45.21;101952.09;5029847;28;20040;-59
2021/10/15 10:00:27;;;;;;;7.22;2.17;;;;;;;19.44;44.66;101953.25;5030778;28;20385;-58
2021/10/15 10:02:53;;;;;;;6.45;1.73;;;;;;;18.75;45.26;101950.41;5029058;28;20032;-58
2021/10/15 10:05:19;;;;;;;9.55;3.00;;;;;;;17.88;49.03;101964.50;5031477;28;20467;-57
2021/10/15 10:07:50;;;;;;;11.40;2.03;;;;;;;16.64;50.86;101961.41;5030590;28;20469;-60
2021/10/15 10:10:20;;;;;;;9.80;2.07;;;;;;;15.93;54.16;101962.34;5031989;28;20029;-59
2021/10/15 10:12:47;;;;;;;7.68;1.75;;;;;;;16.21;54.51;101961.84;5031225;28;20794;-59
2021/10/15 10:15:15;;;;;;;10.32;2.10;;;;;;;17.72;50.55;101967.22;5031532;28;20549;-58
2021/10/15 10:18:17;;;;;;;10.95;2.05;;;;;;;19.05;50.48;101964.72;5030759;28;20493;-58
2021/10/15 10:20:48;;;;;;;8.65;1.80;;;;;;;19.85;43.74;101969.47;5024501;28;20559;-60
2021/10/15 10:23:23;;;;;;;9.50;2.05;;;;;;;19.17;44.43;101977.38;5031545;28;20088;-60
2021/10/15 10:25:49;;;;;;;11.05;2.60;;;;;;;17.87;48.64;101973.53;5031899;28;20040;-60
2021/10/15 10:28:22;;;;;;;10.57;2.10;;;;;;;17.14;51.05;101974.88;5035127;28;20041;-57
2021/10/15 10:30:51;;;;;;;8.65;2.10;;;;;;;17.78;47.87;101986.47;5035087;28;20115;-58
2021/10/15 10:33:17;;;;;;;8.98;2.15;;;;;;;18.86;48.40;101981.09;5035334;28;20025;-59
2021/10/15 10:35:43;;;;;;;12.35;2.63;;;;;;;20.09;44.14;101972.34;5035153;28;20025;-60
2021/10/15 10:38:21;;;;;;;10.48;1.95;;;;;;;20.03;44.45;101979.00;5034955;28;20032;-60
2021/10/15 10:41:01;;;;;;;10.15;2.35;;;;;;;19.07;46.32;101985.16;5035361;28;20025;-59
2021/10/15 10:43:32;;;;;;;10.80;2.22;;;;;;;17.69;50.89;101998.56;5033743;28;20033;-59
2021/10/15 10:46:21;;;;;;;10.82;2.30;;;;;;;16.64;53.35;102006.88;5034430;28;20044;-57
2021/10/15 10:48:46;;;;;;;14.13;2.97;;;;;;;16.76;53.52;101993.81;5022302;28;20080;-58
2021/10/15 10:51:15;;;;;;;8.03;2.20;;;;;;;17.71;49.49;101995.84;5033578;28;20030;-59
2021/10/15 10:53:59;;;;;;;9.27;2.38;;;;;;;18.28;48.27;102000.59;5034101;28;20288;-58
2021/10/15 10:56:43;;;;;;;9.90;1.98;;;;;;;18.97;43.93;101995.59;5033565;28;20026;-59
2021/10/15 10:59:25;;;;;;;7.63;1.98;;;;;;;19.31;45.00;102000.69;5032573;28;20034;-60
2021/10/15 11:02:12;;;;;;;7.47;2.00;;;;;;;19.18;44.47;102014.00;5034941;28;20037;-58
2021/10/15 11:04:51;;;;;;;9.98;2.03;;;;;;;19.64;44.39;102020.94;5034134;28;20048;-59
2021/10/15 11:07:16;;;;;;;8.60;2.25;;;;;;;20.92;41.29;102006.19;5034248;28;20029;-59
2021/10/15 11:10:05;;;;;;;8.95;2.30;;;;;;;21.36;38.64;102022.84;5034837;28;20041;-61
2021/10/15 11:12:30;;;;;;;6.63;1.52;;;;;;;20.76;38.70;102017.19;5034009;28;20037;-53
2021/10/15 11:14:59;;;;;;;7.30;1.90;;;;;;;19.98;41.75;102030.38;5031418;28;20041;-54
2021/10/15 11:17:31;;;;;;;8.10;1.90;;;;;;;19.64;43.10;102023.63;5033751;28;20275;-60
2021/10/15 11:20:09;;;;;;;8.88;2.03;;;;;;;19.10;43.19;102037.78;5032525;28;20072;-60
2021/10/15 11:22:36;;;;;;;7.90;2.10;;;;;;;18.44;45.22;102040.78;5033480;28;20053;-59
2021/10/15 11:25:02;;;;;;;8.50;2.10;;;;;;;18.97;43.58;102049.28;5029944;28;20029;-55
2021/10/15 11:27:28;;;;;;;10.55;2.10;;;;;;;20.01;41.12;102050.84;5034279;28;20033;-59
2021/10/15 11:29:58;;;;;;;9.40;2.00;;;;;;;21.30;37.92;102053.78;5033582;28;20033;-59
2021/10/15 11:32:29;;;;;;;6.03;1.98;;;;;;;21.79;37.30;102049.41;5034797;28;20056;-60
2021/10/15 11:35:07;;;;;;;;;;;;;;;20.74;39.13;102059.47;5034391;28;20072;-59